sensor_id;sensor_type;location;lat;lon;timestamp;temperature;humidity
47310;DHT22;33046;52.270;6.832;2023-03-12T00:00:08;2.80;99.90
47310;DHT22;33046;52.270;6.832;2023-03-12T00:02:15;2.70;99.90
47310;DHT22;33046;52.270;6.832;2023-03-12T00:04:22;2.70;99.90
47310;DHT22;33046;52.270;6.832;2023-03-12T00:06:29;2.70;99.90
47310;DHT22;33046;52.270;6.832;2023-03-12T00:08:36;2.70;99.90
47310;DHT22;33046;52.270;6.832;2023-03-12T00:10:43;2.70;99.90
47310;DHT22;33046;52.270;6.832;2023-03-12T00:12:51;2.70;99.90
47310;DHT22;33046;52.270;6.832;2023-03-12T00:14:59;2.70;99.90
47310;DHT22;33046;52.270;6.832;2023-03-12T00:17:06;2.70;99.90
47310;DHT22;33046;52.270;6.832;2023-03-12T00:19:13;2.70;99.90
47310;DHT22;33046;52.270;6.832;2023-03-12T00:21:20;2.70;99.90
47310;DHT22;33046;52.270;6.832;2023-03-12T00:23:27;2.80;99.90
47310;DHT22;33046;52.270;6.832;2023-03-12T00:25:35;2.80;99.90
47310;DHT22;33046;52.270;6.832;2023-03-12T00:27:42;2.80;99.90
47310;DHT22;33046;52.270;6.832;2023-03-12T00:29:50;2.70;99.90
47310;DHT22;33046;52.270;6.832;2023-03-12T00:31:57;2.70;99.90
47310;DHT22;33046;52.270;6.832;2023-03-12T00:34:04;2.70;99.90
47310;DHT22;33046;52.270;6.832;2023-03-12T00:36:11;2.70;99.90
47310;DHT22;33046;52.270;6.832;2023-03-12T00:38:18;2.70;99.90
47310;DHT22;33046;52.270;6.832;2023-03-12T00:40:25;2.70;99.90
47310;DHT22;33046;52.270;6.832;2023-03-12T00:42:32;2.70;99.90
47310;DHT22;33046;52.270;6.832;2023-03-12T00:44:39;2.70;99.90
47310;DHT22;33046;52.270;6.832;2023-03-12T00:46:47;2.70;99.90
47310;DHT22;33046;52.270;6.832;2023-03-12T00:48:54;2.70;99.90
47310;DHT22;33046;52.270;6.832;2023-03-12T00:51:00;2.70;99.90
47310;DHT22;33046;52.270;6.832;2023-03-12T00:53:07;2.70;99.90
47310;DHT22;33046;52.270;6.832;2023-03-12T00:55:14;2.60;99.90
47310;DHT22;33046;52.270;6.832;2023-03-12T00:57:21;2.70;99.90
47310;DHT22;33046;52.270;6.832;2023-03-12T00:59:28;2.70;99.90
47310;DHT22;33046;52.270;6.832;2023-03-12T01:01:35;2.60;99.90
47310;DHT22;33046;52.270;6.832;2023-03-12T01:03:43;2.60;99.90
47310;DHT22;33046;52.270;6.832;2023-03-12T01:05:50;2.60;99.90
47310;DHT22;33046;52.270;6.832;2023-03-12T01:07:57;2.60;99.90
47310;DHT22;33046;52.270;6.832;2023-03-12T01:10:04;2.60;99.90
47310;DHT22;33046;52.270;6.832;2023-03-12T01:12:11;2.60;99.90
47310;DHT22;33046;52.270;6.832;2023-03-12T01:14:18;2.60;99.90
47310;DHT22;33046;52.270;6.832;2023-03-12T01:16:26;2.60;99.90
47310;DHT22;33046;52.270;6.832;2023-03-12T01:18:33;2.60;99.90
47310;DHT22;33046;52.270;6.832;2023-03-12T01:20:42;2.60;99.90
47310;DHT22;33046;52.270;6.832;2023-03-12T01:22:49;2.60;99.90
47310;DHT22;33046;52.270;6.832;2023-03-12T01:24:56;2.60;99.90
47310;DHT22;33046;52.270;6.832;2023-03-12T01:27:03;2.60;99.90
47310;DHT22;33046;52.270;6.832;2023-03-12T01:29:10;2.60;99.90
47310;DHT22;33046;52.270;6.832;2023-03-12T01:31:17;2.60;99.90
47310;DHT22;33046;52.270;6.832;2023-03-12T01:33:25;2.60;99.90
47310;DHT22;33046;52.270;6.832;2023-03-12T01:35:35;2.60;99.90
47310;DHT22;33046;52.270;6.832;2023-03-12T01:37:43;2.60;99.90
47310;DHT22;33046;52.270;6.832;2023-03-12T01:39:50;2.60;99.90
47310;DHT22;33046;52.270;6.832;2023-03-12T01:41:57;2.60;99.90
47310;DHT22;33046;52.270;6.832;2023-03-12T01:44:05;2.70;99.90
47310;DHT22;33046;52.270;6.832;2023-03-12T01:46:33;2.60;99.90
47310;DHT22;33046;52.270;6.832;2023-03-12T01:48:49;2.70;99.90
47310;DHT22;33046;52.270;6.832;2023-03-12T01:50:57;2.60;99.90
47310;DHT22;33046;52.270;6.832;2023-03-12T01:53:06;2.60;99.90
47310;DHT22;33046;52.270;6.832;2023-03-12T01:55:14;2.60;99.90
47310;DHT22;33046;52.270;6.832;2023-03-12T01:57:27;2.70;99.90
47310;DHT22;33046;52.270;6.832;2023-03-12T01:59:40;2.70;99.90
47310;DHT22;33046;52.270;6.832;2023-03-12T02:01:48;2.70;99.90
47310;DHT22;33046;52.270;6.832;2023-03-12T02:03:57;2.70;99.90
47310;DHT22;33046;52.270;6.832;2023-03-12T02:06:08;2.70;99.90
47310;DHT22;33046;52.270;6.832;2023-03-12T02:08:18;2.70;99.90
47310;DHT22;33046;52.270;6.832;2023-03-12T02:10:25;2.70;99.90
47310;DHT22;33046;52.270;6.832;2023-03-12T02:12:32;2.70;99.90
47310;DHT22;33046;52.270;6.832;2023-03-12T02:14:40;2.70;99.90
47310;DHT22;33046;52.270;6.832;2023-03-12T02:16:47;2.70;99.90
47310;DHT22;33046;52.270;6.832;2023-03-12T02:18:55;2.80;99.90
47310;DHT22;33046;52.270;6.832;2023-03-12T02:21:09;2.70;99.90
47310;DHT22;33046;52.270;6.832;2023-03-12T02:23:26;2.70;99.90
47310;DHT22;33046;52.270;6.832;2023-03-12T02:25:37;2.80;99.90
47310;DHT22;33046;52.270;6.832;2023-03-12T02:27:45;2.80;99.90
47310;DHT22;33046;52.270;6.832;2023-03-12T02:29:53;2.80;99.90
47310;DHT22;33046;52.270;6.832;2023-03-12T02:32:01;2.80;99.90
47310;DHT22;33046;52.270;6.832;2023-03-12T02:34:09;2.80;99.90
47310;DHT22;33046;52.270;6.832;2023-03-12T02:36:16;2.80;99.90
47310;DHT22;33046;52.270;6.832;2023-03-12T02:38:34;2.80;99.90
47310;DHT22;33046;52.270;6.832;2023-03-12T02:40:45;2.90;99.90
47310;DHT22;33046;52.270;6.832;2023-03-12T02:42:54;2.90;99.90
47310;DHT22;33046;52.270;6.832;2023-03-12T02:45:02;2.90;99.90
47310;DHT22;33046;52.270;6.832;2023-03-12T02:47:09;2.90;99.90
47310;DHT22;33046;52.270;6.832;2023-03-12T02:49:18;2.90;99.90
47310;DHT22;33046;52.270;6.832;2023-03-12T02:51:26;2.90;99.90
47310;DHT22;33046;52.270;6.832;2023-03-12T02:53:33;2.90;99.90
47310;DHT22;33046;52.270;6.832;2023-03-12T02:55:39;2.90;99.90
47310;DHT22;33046;52.270;6.832;2023-03-12T02:57:48;2.90;99.90
47310;DHT22;33046;52.270;6.832;2023-03-12T02:59:55;2.90;99.90
47310;DHT22;33046;52.270;6.832;2023-03-12T03:02:02;2.90;99.90
47310;DHT22;33046;52.270;6.832;2023-03-12T03:04:09;3.00;99.90
47310;DHT22;33046;52.270;6.832;2023-03-12T03:06:17;3.00;99.90
47310;DHT22;33046;52.270;6.832;2023-03-12T03:08:24;3.00;99.90
47310;DHT22;33046;52.270;6.832;2023-03-12T03:10:31;3.00;99.90
47310;DHT22;33046;52.270;6.832;2023-03-12T03:12:38;3.00;99.90
47310;DHT22;33046;52.270;6.832;2023-03-12T03:14:47;3.00;99.90
47310;DHT22;33046;52.270;6.832;2023-03-12T03:16:55;3.00;99.90
47310;DHT22;33046;52.270;6.832;2023-03-12T03:19:02;3.00;99.90
47310;DHT22;33046;52.270;6.832;2023-03-12T03:21:09;3.00;99.90
47310;DHT22;33046;52.270;6.832;2023-03-12T03:23:16;3.10;99.90
47310;DHT22;33046;52.270;6.832;2023-03-12T03:25:23;3.10;99.90
47310;DHT22;33046;52.270;6.832;2023-03-12T03:27:30;3.10;99.90
47310;DHT22;33046;52.270;6.832;2023-03-12T03:29:37;3.10;99.90
47310;DHT22;33046;52.270;6.832;2023-03-12T03:31:45;3.10;99.90
47310;DHT22;33046;52.270;6.832;2023-03-12T03:33:53;3.10;99.90
47310;DHT22;33046;52.270;6.832;2023-03-12T03:36:00;3.10;99.90
47310;DHT22;33046;52.270;6.832;2023-03-12T03:38:10;3.10;99.90
47310;DHT22;33046;52.270;6.832;2023-03-12T03:40:17;3.10;99.90
47310;DHT22;33046;52.270;6.832;2023-03-12T03:42:24;3.10;99.90
47310;DHT22;33046;52.270;6.832;2023-03-12T03:44:31;3.20;99.90
47310;DHT22;33046;52.270;6.832;2023-03-12T03:46:39;3.20;99.90
47310;DHT22;33046;52.270;6.832;2023-03-12T03:48:50;3.20;99.90
47310;DHT22;33046;52.270;6.832;2023-03-12T03:50:59;3.20;99.90
47310;DHT22;33046;52.270;6.832;2023-03-12T03:53:07;3.20;99.90
47310;DHT22;33046;52.270;6.832;2023-03-12T03:55:14;3.20;99.90
47310;DHT22;33046;52.270;6.832;2023-03-12T03:57:21;3.20;99.90
47310;DHT22;33046;52.270;6.832;2023-03-12T03:59:28;3.30;99.90
47310;DHT22;33046;52.270;6.832;2023-03-12T04:01:35;3.30;99.90
47310;DHT22;33046;52.270;6.832;2023-03-12T04:03:42;3.30;99.90
47310;DHT22;33046;52.270;6.832;2023-03-12T04:05:54;3.30;99.90
47310;DHT22;33046;52.270;6.832;2023-03-12T04:08:02;3.30;99.90
47310;DHT22;33046;52.270;6.832;2023-03-12T04:10:11;3.30;99.90
47310;DHT22;33046;52.270;6.832;2023-03-12T04:12:18;3.30;99.90
47310;DHT22;33046;52.270;6.832;2023-03-12T04:14:25;3.30;99.90
47310;DHT22;33046;52.270;6.832;2023-03-12T04:16:32;3.30;99.90
47310;DHT22;33046;52.270;6.832;2023-03-12T04:18:40;3.30;99.90
47310;DHT22;33046;52.270;6.832;2023-03-12T04:20:48;3.30;99.90
47310;DHT22;33046;52.270;6.832;2023-03-12T04:22:57;3.30;99.90
47310;DHT22;33046;52.270;6.832;2023-03-12T04:25:06;3.30;99.90
47310;DHT22;33046;52.270;6.832;2023-03-12T04:27:13;3.30;99.90
47310;DHT22;33046;52.270;6.832;2023-03-12T04:29:20;3.30;99.90
47310;DHT22;33046;52.270;6.832;2023-03-12T04:31:27;3.30;99.90
47310;DHT22;33046;52.270;6.832;2023-03-12T04:33:36;3.30;99.90
47310;DHT22;33046;52.270;6.832;2023-03-12T04:35:49;3.30;99.90
47310;DHT22;33046;52.270;6.832;2023-03-12T04:37:59;3.30;99.90
47310;DHT22;33046;52.270;6.832;2023-03-12T04:40:09;3.30;99.90
47310;DHT22;33046;52.270;6.832;2023-03-12T04:42:16;3.30;99.90
47310;DHT22;33046;52.270;6.832;2023-03-12T04:44:25;3.30;99.90
47310;DHT22;33046;52.270;6.832;2023-03-12T04:46:32;3.30;99.90
47310;DHT22;33046;52.270;6.832;2023-03-12T04:48:39;3.30;99.80
47310;DHT22;33046;52.270;6.832;2023-03-12T04:50:46;3.30;99.90
47310;DHT22;33046;52.270;6.832;2023-03-12T04:52:53;3.40;99.90
47310;DHT22;33046;52.270;6.832;2023-03-12T04:55:01;3.40;99.90
47310;DHT22;33046;52.270;6.832;2023-03-12T04:57:08;3.40;99.90
47310;DHT22;33046;52.270;6.832;2023-03-12T04:59:16;3.40;99.90
47310;DHT22;33046;52.270;6.832;2023-03-12T05:01:26;3.30;99.90
47310;DHT22;33046;52.270;6.832;2023-03-12T05:03:33;3.40;99.90
47310;DHT22;33046;52.270;6.832;2023-03-12T05:05:41;3.40;99.90
47310;DHT22;33046;52.270;6.832;2023-03-12T05:07:48;3.40;99.90
47310;DHT22;33046;52.270;6.832;2023-03-12T05:09:55;3.40;99.90
47310;DHT22;33046;52.270;6.832;2023-03-12T05:12:04;3.40;99.60
47310;DHT22;33046;52.270;6.832;2023-03-12T05:14:12;3.40;99.90
47310;DHT22;33046;52.270;6.832;2023-03-12T05:16:20;3.40;99.90
47310;DHT22;33046;52.270;6.832;2023-03-12T05:18:27;3.40;99.90
47310;DHT22;33046;52.270;6.832;2023-03-12T05:20:34;3.40;99.90
47310;DHT22;33046;52.270;6.832;2023-03-12T05:22:41;3.40;99.90
47310;DHT22;33046;52.270;6.832;2023-03-12T05:24:48;3.50;99.90
47310;DHT22;33046;52.270;6.832;2023-03-12T05:26:56;3.50;99.90
47310;DHT22;33046;52.270;6.832;2023-03-12T05:29:05;3.50;99.90
47310;DHT22;33046;52.270;6.832;2023-03-12T05:31:13;3.50;99.90
47310;DHT22;33046;52.270;6.832;2023-03-12T05:33:21;3.50;99.90
47310;DHT22;33046;52.270;6.832;2023-03-12T05:35:28;3.50;99.90
47310;DHT22;33046;52.270;6.832;2023-03-12T05:37:35;3.50;99.90
47310;DHT22;33046;52.270;6.832;2023-03-12T05:39:42;3.50;99.90
47310;DHT22;33046;52.270;6.832;2023-03-12T05:41:50;3.50;99.90
47310;DHT22;33046;52.270;6.832;2023-03-12T05:43:58;3.50;99.90
47310;DHT22;33046;52.270;6.832;2023-03-12T05:46:08;3.50;99.90
47310;DHT22;33046;52.270;6.832;2023-03-12T05:48:16;3.50;99.90
47310;DHT22;33046;52.270;6.832;2023-03-12T05:50:23;3.50;99.90
47310;DHT22;33046;52.270;6.832;2023-03-12T05:52:31;3.50;99.90
47310;DHT22;33046;52.270;6.832;2023-03-12T05:54:38;3.50;99.90
47310;DHT22;33046;52.270;6.832;2023-03-12T05:56:45;3.60;99.90
47310;DHT22;33046;52.270;6.832;2023-03-12T05:58:52;3.60;99.90
47310;DHT22;33046;52.270;6.832;2023-03-12T06:01:01;3.60;99.90
47310;DHT22;33046;52.270;6.832;2023-03-12T06:03:10;3.60;99.90
47310;DHT22;33046;52.270;6.832;2023-03-12T06:05:17;3.60;99.90
47310;DHT22;33046;52.270;6.832;2023-03-12T06:07:24;3.60;99.90
47310;DHT22;33046;52.270;6.832;2023-03-12T06:09:31;3.60;99.90
47310;DHT22;33046;52.270;6.832;2023-03-12T06:11:38;3.60;99.90
47310;DHT22;33046;52.270;6.832;2023-03-12T06:13:45;3.60;99.90
47310;DHT22;33046;52.270;6.832;2023-03-12T06:15:52;3.60;99.90
47310;DHT22;33046;52.270;6.832;2023-03-12T06:17:59;3.60;99.90
47310;DHT22;33046;52.270;6.832;2023-03-12T06:20:09;3.60;99.90
47310;DHT22;33046;52.270;6.832;2023-03-12T06:22:16;3.60;99.90
47310;DHT22;33046;52.270;6.832;2023-03-12T06:24:22;3.60;99.90
47310;DHT22;33046;52.270;6.832;2023-03-12T06:26:35;3.60;99.90
47310;DHT22;33046;52.270;6.832;2023-03-12T06:28:44;3.60;99.90
47310;DHT22;33046;52.270;6.832;2023-03-12T06:30:52;3.60;99.90
47310;DHT22;33046;52.270;6.832;2023-03-12T06:32:59;3.60;99.90
47310;DHT22;33046;52.270;6.832;2023-03-12T06:35:07;3.60;99.90
47310;DHT22;33046;52.270;6.832;2023-03-12T06:37:14;3.60;99.90
47310;DHT22;33046;52.270;6.832;2023-03-12T06:39:23;3.70;99.90
47310;DHT22;33046;52.270;6.832;2023-03-12T06:41:30;3.60;99.90
47310;DHT22;33046;52.270;6.832;2023-03-12T06:43:37;3.70;99.90
47310;DHT22;33046;52.270;6.832;2023-03-12T06:45:44;3.70;99.90
47310;DHT22;33046;52.270;6.832;2023-03-12T06:47:51;3.70;99.90
47310;DHT22;33046;52.270;6.832;2023-03-12T06:49:58;3.70;99.90
47310;DHT22;33046;52.270;6.832;2023-03-12T06:52:06;3.70;99.90
47310;DHT22;33046;52.270;6.832;2023-03-12T06:54:13;3.70;99.90
47310;DHT22;33046;52.270;6.832;2023-03-12T06:56:20;3.70;99.90
47310;DHT22;33046;52.270;6.832;2023-03-12T06:58:27;3.70;99.90
47310;DHT22;33046;52.270;6.832;2023-03-12T07:00:34;3.70;99.90
47310;DHT22;33046;52.270;6.832;2023-03-12T07:02:40;3.70;99.90
47310;DHT22;33046;52.270;6.832;2023-03-12T07:04:47;3.70;99.90
47310;DHT22;33046;52.270;6.832;2023-03-12T07:06:54;3.70;99.90
47310;DHT22;33046;52.270;6.832;2023-03-12T07:09:03;3.80;99.90
47310;DHT22;33046;52.270;6.832;2023-03-12T07:11:10;3.80;99.90
47310;DHT22;33046;52.270;6.832;2023-03-12T07:13:16;3.80;99.90
47310;DHT22;33046;52.270;6.832;2023-03-12T07:15:23;3.80;99.90
47310;DHT22;33046;52.270;6.832;2023-03-12T07:17:30;3.80;99.90
47310;DHT22;33046;52.270;6.832;2023-03-12T07:19:37;3.80;99.90
47310;DHT22;33046;52.270;6.832;2023-03-12T07:21:44;3.80;99.90
47310;DHT22;33046;52.270;6.832;2023-03-12T07:23:51;3.80;99.90
47310;DHT22;33046;52.270;6.832;2023-03-12T07:25:59;3.80;99.90
47310;DHT22;33046;52.270;6.832;2023-03-12T07:28:07;3.80;99.90
47310;DHT22;33046;52.270;6.832;2023-03-12T07:30:14;3.90;99.90
47310;DHT22;33046;52.270;6.832;2023-03-12T07:32:21;3.80;99.90
47310;DHT22;33046;52.270;6.832;2023-03-12T07:34:27;3.90;99.90
47310;DHT22;33046;52.270;6.832;2023-03-12T07:36:34;3.90;99.90
47310;DHT22;33046;52.270;6.832;2023-03-12T07:38:41;3.90;99.90
47310;DHT22;33046;52.270;6.832;2023-03-12T07:40:50;3.90;99.90
47310;DHT22;33046;52.270;6.832;2023-03-12T07:42:58;3.90;99.90
47310;DHT22;33046;52.270;6.832;2023-03-12T07:45:06;3.90;99.90
47310;DHT22;33046;52.270;6.832;2023-03-12T07:47:13;3.90;99.90
47310;DHT22;33046;52.270;6.832;2023-03-12T07:49:29;3.90;99.90
47310;DHT22;33046;52.270;6.832;2023-03-12T07:51:36;3.90;99.90
47310;DHT22;33046;52.270;6.832;2023-03-12T07:53:43;3.90;99.90
47310;DHT22;33046;52.270;6.832;2023-03-12T07:55:50;3.90;99.90
47310;DHT22;33046;52.270;6.832;2023-03-12T07:57:58;3.90;99.90
47310;DHT22;33046;52.270;6.832;2023-03-12T08:00:06;4.00;99.90
47310;DHT22;33046;52.270;6.832;2023-03-12T08:02:17;4.00;99.90
47310;DHT22;33046;52.270;6.832;2023-03-12T08:04:24;4.00;99.90
47310;DHT22;33046;52.270;6.832;2023-03-12T08:06:31;4.00;99.90
47310;DHT22;33046;52.270;6.832;2023-03-12T08:08:37;4.00;99.90
47310;DHT22;33046;52.270;6.832;2023-03-12T08:10:44;4.00;99.90
47310;DHT22;33046;52.270;6.832;2023-03-12T08:12:51;4.00;99.90
47310;DHT22;33046;52.270;6.832;2023-03-12T08:14:59;4.00;99.90
47310;DHT22;33046;52.270;6.832;2023-03-12T08:17:06;4.00;99.90
47310;DHT22;33046;52.270;6.832;2023-03-12T08:19:13;4.00;99.90
47310;DHT22;33046;52.270;6.832;2023-03-12T08:21:20;4.00;99.90
47310;DHT22;33046;52.270;6.832;2023-03-12T08:23:27;4.00;99.90
47310;DHT22;33046;52.270;6.832;2023-03-12T08:25:33;4.00;99.90
47310;DHT22;33046;52.270;6.832;2023-03-12T08:27:40;4.00;99.90
47310;DHT22;33046;52.270;6.832;2023-03-12T08:29:47;4.10;99.90
47310;DHT22;33046;52.270;6.832;2023-03-12T08:31:55;4.00;99.90
47310;DHT22;33046;52.270;6.832;2023-03-12T08:34:10;4.00;99.90
47310;DHT22;33046;52.270;6.832;2023-03-12T08:36:17;4.00;99.90
47310;DHT22;33046;52.270;6.832;2023-03-12T08:38:24;4.10;99.90
47310;DHT22;33046;52.270;6.832;2023-03-12T08:40:31;4.10;99.90
47310;DHT22;33046;52.270;6.832;2023-03-12T08:42:38;4.10;99.90
47310;DHT22;33046;52.270;6.832;2023-03-12T08:44:45;4.00;99.90
47310;DHT22;33046;52.270;6.832;2023-03-12T08:46:52;4.10;99.90
47310;DHT22;33046;52.270;6.832;2023-03-12T08:49:00;4.10;99.90
47310;DHT22;33046;52.270;6.832;2023-03-12T08:51:07;4.10;99.90
47310;DHT22;33046;52.270;6.832;2023-03-12T08:53:14;4.10;99.90
47310;DHT22;33046;52.270;6.832;2023-03-12T08:55:21;4.10;99.90
47310;DHT22;33046;52.270;6.832;2023-03-12T08:57:28;4.10;99.90
47310;DHT22;33046;52.270;6.832;2023-03-12T08:59:35;4.10;99.90
47310;DHT22;33046;52.270;6.832;2023-03-12T09:01:42;4.10;99.90
47310;DHT22;33046;52.270;6.832;2023-03-12T09:03:49;4.10;99.90
47310;DHT22;33046;52.270;6.832;2023-03-12T09:06:05;4.10;99.90
47310;DHT22;33046;52.270;6.832;2023-03-12T09:08:13;4.10;99.90
47310;DHT22;33046;52.270;6.832;2023-03-12T09:10:20;4.20;99.90
47310;DHT22;33046;52.270;6.832;2023-03-12T09:12:27;4.20;99.90
47310;DHT22;33046;52.270;6.832;2023-03-12T09:14:33;4.20;99.90
47310;DHT22;33046;52.270;6.832;2023-03-12T09:17:00;4.20;99.90
47310;DHT22;33046;52.270;6.832;2023-03-12T09:19:07;4.20;99.90
47310;DHT22;33046;52.270;6.832;2023-03-12T09:21:15;4.20;99.90
47310;DHT22;33046;52.270;6.832;2023-03-12T09:23:22;4.20;99.90
47310;DHT22;33046;52.270;6.832;2023-03-12T09:25:29;4.20;99.90
47310;DHT22;33046;52.270;6.832;2023-03-12T09:27:36;4.20;99.90
47310;DHT22;33046;52.270;6.832;2023-03-12T09:29:43;4.20;99.90
47310;DHT22;33046;52.270;6.832;2023-03-12T09:32:05;4.20;99.90
47310;DHT22;33046;52.270;6.832;2023-03-12T09:34:12;4.30;99.90
47310;DHT22;33046;52.270;6.832;2023-03-12T09:36:20;4.20;99.90
47310;DHT22;33046;52.270;6.832;2023-03-12T09:38:27;4.30;99.90
47310;DHT22;33046;52.270;6.832;2023-03-12T09:40:35;4.30;99.90
47310;DHT22;33046;52.270;6.832;2023-03-12T09:42:46;4.30;99.90
47310;DHT22;33046;52.270;6.832;2023-03-12T09:44:57;4.30;99.90
47310;DHT22;33046;52.270;6.832;2023-03-12T09:47:09;4.30;99.90
47310;DHT22;33046;52.270;6.832;2023-03-12T09:49:20;4.30;99.90
47310;DHT22;33046;52.270;6.832;2023-03-12T09:51:33;4.30;99.90
47310;DHT22;33046;52.270;6.832;2023-03-12T09:53:44;4.40;99.90
47310;DHT22;33046;52.270;6.832;2023-03-12T09:55:55;4.40;99.90
47310;DHT22;33046;52.270;6.832;2023-03-12T09:58:02;4.40;99.90
47310;DHT22;33046;52.270;6.832;2023-03-12T10:00:12;4.40;99.90
47310;DHT22;33046;52.270;6.832;2023-03-12T10:02:52;4.40;99.90
47310;DHT22;33046;52.270;6.832;2023-03-12T10:05:03;4.40;99.90
47310;DHT22;33046;52.270;6.832;2023-03-12T10:07:17;4.40;99.90
47310;DHT22;33046;52.270;6.832;2023-03-12T10:09:50;4.40;99.90
47310;DHT22;33046;52.270;6.832;2023-03-12T10:12:06;4.40;99.90
47310;DHT22;33046;52.270;6.832;2023-03-12T10:14:27;4.40;99.90
47310;DHT22;33046;52.270;6.832;2023-03-12T10:16:46;4.50;99.90
47310;DHT22;33046;52.270;6.832;2023-03-12T10:19:15;4.50;99.90
47310;DHT22;33046;52.270;6.832;2023-03-12T10:21:29;4.50;99.90
47310;DHT22;33046;52.270;6.832;2023-03-12T10:23:48;4.50;99.90
47310;DHT22;33046;52.270;6.832;2023-03-12T10:26:01;4.50;99.90
47310;DHT22;33046;52.270;6.832;2023-03-12T10:28:14;4.50;99.90
47310;DHT22;33046;52.270;6.832;2023-03-12T10:30:24;4.50;99.90
47310;DHT22;33046;52.270;6.832;2023-03-12T10:32:37;4.60;99.90
47310;DHT22;33046;52.270;6.832;2023-03-12T10:34:48;4.60;99.90
47310;DHT22;33046;52.270;6.832;2023-03-12T10:36:58;4.70;99.90
47310;DHT22;33046;52.270;6.832;2023-03-12T10:39:12;4.70;99.90
47310;DHT22;33046;52.270;6.832;2023-03-12T10:41:19;4.70;99.90
47310;DHT22;33046;52.270;6.832;2023-03-12T10:43:26;4.70;99.90
47310;DHT22;33046;52.270;6.832;2023-03-12T10:45:37;4.80;99.90
47310;DHT22;33046;52.270;6.832;2023-03-12T10:47:49;4.80;99.90
47310;DHT22;33046;52.270;6.832;2023-03-12T10:50:12;4.90;99.90
47310;DHT22;33046;52.270;6.832;2023-03-12T10:52:20;4.90;99.90
47310;DHT22;33046;52.270;6.832;2023-03-12T10:54:32;4.90;99.90
47310;DHT22;33046;52.270;6.832;2023-03-12T10:56:48;4.90;99.90
47310;DHT22;33046;52.270;6.832;2023-03-12T10:58:55;4.90;99.90
47310;DHT22;33046;52.270;6.832;2023-03-12T11:01:04;5.00;99.90
47310;DHT22;33046;52.270;6.832;2023-03-12T11:03:19;5.00;99.90
47310;DHT22;33046;52.270;6.832;2023-03-12T11:05:29;5.10;99.90
47310;DHT22;33046;52.270;6.832;2023-03-12T11:07:36;5.10;99.90
47310;DHT22;33046;52.270;6.832;2023-03-12T11:12:37;5.20;99.90
47310;DHT22;33046;52.270;6.832;2023-03-12T11:14:45;5.20;99.90
47310;DHT22;33046;52.270;6.832;2023-03-12T11:16:53;5.20;99.90
47310;DHT22;33046;52.270;6.832;2023-03-12T11:19:02;5.30;99.90
47310;DHT22;33046;52.270;6.832;2023-03-12T11:21:15;5.30;99.90
47310;DHT22;33046;52.270;6.832;2023-03-12T11:23:25;5.30;99.90
47310;DHT22;33046;52.270;6.832;2023-03-12T11:25:34;5.40;99.90
47310;DHT22;33046;52.270;6.832;2023-03-12T11:27:43;5.40;99.90
47310;DHT22;33046;52.270;6.832;2023-03-12T11:29:52;5.40;99.90
47310;DHT22;33046;52.270;6.832;2023-03-12T11:32:04;5.50;99.90
47310;DHT22;33046;52.270;6.832;2023-03-12T11:34:17;5.50;99.90
47310;DHT22;33046;52.270;6.832;2023-03-12T11:36:38;5.50;99.90
47310;DHT22;33046;52.270;6.832;2023-03-12T11:38:53;5.50;99.90
47310;DHT22;33046;52.270;6.832;2023-03-12T11:41:18;5.50;99.90
47310;DHT22;33046;52.270;6.832;2023-03-12T11:43:37;5.60;99.90
47310;DHT22;33046;52.270;6.832;2023-03-12T11:46:01;5.60;99.90
47310;DHT22;33046;52.270;6.832;2023-03-12T11:48:17;5.60;99.90
47310;DHT22;33046;52.270;6.832;2023-03-12T11:50:38;5.60;99.90
47310;DHT22;33046;52.270;6.832;2023-03-12T11:53:01;5.60;99.90
47310;DHT22;33046;52.270;6.832;2023-03-12T11:55:20;5.70;99.90
47310;DHT22;33046;52.270;6.832;2023-03-12T11:57:36;5.70;99.90
47310;DHT22;33046;52.270;6.832;2023-03-12T11:59:58;5.70;99.90
47310;DHT22;33046;52.270;6.832;2023-03-12T12:02:35;5.80;99.90
47310;DHT22;33046;52.270;6.832;2023-03-12T12:05:04;5.80;99.90
47310;DHT22;33046;52.270;6.832;2023-03-12T12:07:31;5.90;99.90
47310;DHT22;33046;52.270;6.832;2023-03-12T12:09:48;5.90;99.90
47310;DHT22;33046;52.270;6.832;2023-03-12T12:12:15;5.90;99.90
47310;DHT22;33046;52.270;6.832;2023-03-12T12:14:39;6.00;99.90
47310;DHT22;33046;52.270;6.832;2023-03-12T12:17:03;6.00;99.90
47310;DHT22;33046;52.270;6.832;2023-03-12T12:19:21;6.00;99.90
47310;DHT22;33046;52.270;6.832;2023-03-12T12:21:47;6.10;99.90
47310;DHT22;33046;52.270;6.832;2023-03-12T12:24:02;6.10;99.90
47310;DHT22;33046;52.270;6.832;2023-03-12T12:26:13;6.10;99.90
47310;DHT22;33046;52.270;6.832;2023-03-12T12:28:44;6.20;99.90
47310;DHT22;33046;52.270;6.832;2023-03-12T12:31:07;6.20;99.90
47310;DHT22;33046;52.270;6.832;2023-03-12T12:33:28;6.30;99.90
47310;DHT22;33046;52.270;6.832;2023-03-12T12:35:39;6.30;99.90
47310;DHT22;33046;52.270;6.832;2023-03-12T12:37:50;6.40;99.90
47310;DHT22;33046;52.270;6.832;2023-03-12T12:40:04;6.40;99.90
47310;DHT22;33046;52.270;6.832;2023-03-12T12:42:18;6.50;99.90
47310;DHT22;33046;52.270;6.832;2023-03-12T12:44:29;6.50;99.90
47310;DHT22;33046;52.270;6.832;2023-03-12T12:46:42;6.60;99.90
47310;DHT22;33046;52.270;6.832;2023-03-12T12:48:52;6.70;99.90
47310;DHT22;33046;52.270;6.832;2023-03-12T12:51:00;6.70;99.90
47310;DHT22;33046;52.270;6.832;2023-03-12T12:53:18;6.80;99.90
47310;DHT22;33046;52.270;6.832;2023-03-12T12:55:29;6.80;99.90
47310;DHT22;33046;52.270;6.832;2023-03-12T12:57:40;6.80;99.90
47310;DHT22;33046;52.270;6.832;2023-03-12T12:59:56;6.90;99.90
47310;DHT22;33046;52.270;6.832;2023-03-12T13:02:16;7.00;99.90
47310;DHT22;33046;52.270;6.832;2023-03-12T13:04:27;7.00;99.90
47310;DHT22;33046;52.270;6.832;2023-03-12T13:06:55;7.10;99.90
47310;DHT22;33046;52.270;6.832;2023-03-12T13:09:13;7.10;99.90
47310;DHT22;33046;52.270;6.832;2023-03-12T13:11:24;7.20;99.90
47310;DHT22;33046;52.270;6.832;2023-03-12T13:13:31;7.20;99.90
47310;DHT22;33046;52.270;6.832;2023-03-12T13:15:39;7.30;99.90
47310;DHT22;33046;52.270;6.832;2023-03-12T13:18:06;7.40;99.90
47310;DHT22;33046;52.270;6.832;2023-03-12T13:20:15;7.40;99.90
47310;DHT22;33046;52.270;6.832;2023-03-12T13:22:34;7.50;99.90
47310;DHT22;33046;52.270;6.832;2023-03-12T13:24:49;7.60;99.90
47310;DHT22;33046;52.270;6.832;2023-03-12T13:27:01;7.60;99.90
47310;DHT22;33046;52.270;6.832;2023-03-12T13:29:18;7.60;99.90
47310;DHT22;33046;52.270;6.832;2023-03-12T13:31:34;7.70;99.90
47310;DHT22;33046;52.270;6.832;2023-03-12T13:33:44;7.70;99.90
47310;DHT22;33046;52.270;6.832;2023-03-12T13:36:09;7.80;99.90
47310;DHT22;33046;52.270;6.832;2023-03-12T13:38:22;7.80;99.90
47310;DHT22;33046;52.270;6.832;2023-03-12T13:41:00;7.90;99.90
47310;DHT22;33046;52.270;6.832;2023-03-12T13:43:12;7.90;99.90
47310;DHT22;33046;52.270;6.832;2023-03-12T13:45:26;8.00;99.90
47310;DHT22;33046;52.270;6.832;2023-03-12T13:47:39;8.00;99.90
47310;DHT22;33046;52.270;6.832;2023-03-12T13:49:52;8.10;99.90
47310;DHT22;33046;52.270;6.832;2023-03-12T13:52:09;8.10;99.90
47310;DHT22;33046;52.270;6.832;2023-03-12T13:54:18;8.10;99.90
47310;DHT22;33046;52.270;6.832;2023-03-12T13:56:28;8.20;99.90